sensor_id;sensor_type;location;lat;lon;timestamp;pressure;altitude;pressure_sealevel;temperature;humidity
74346;BME280;62776;50.518;6.732;2023-05-07T00:00:49;96554.19;;;13.63;100.00
74346;BME280;62776;50.518;6.732;2023-05-07T00:03:35;96555.03;;;13.65;100.00
74346;BME280;62776;50.518;6.732;2023-05-07T00:06:24;96548.97;;;13.63;100.00
74346;BME280;62776;50.518;6.732;2023-05-07T00:09:14;96555.84;;;13.67;100.00
74346;BME280;62776;50.518;6.732;2023-05-07T00:12:07;96542.94;;;13.60;100.00
74346;BME280;62776;50.518;6.732;2023-05-07T00:14:53;96550.56;;;13.70;100.00
74346;BME280;62776;50.518;6.732;2023-05-07T00:17:40;96547.03;;;13.71;100.00
74346;BME280;62776;50.518;6.732;2023-05-07T00:20:27;96548.84;;;13.69;100.00
74346;BME280;62776;50.518;6.732;2023-05-07T00:23:14;96545.41;;;13.67;100.00
74346;BME280;62776;50.518;6.732;2023-05-07T00:26:02;96540.19;;;13.67;100.00
74346;BME280;62776;50.518;6.732;2023-05-07T00:28:55;96541.06;;;13.67;100.00
74346;BME280;62776;50.518;6.732;2023-05-07T00:31:41;96540.13;;;13.70;100.00
74346;BME280;62776;50.518;6.732;2023-05-07T00:34:28;96538.31;;;13.72;100.00
74346;BME280;62776;50.518;6.732;2023-05-07T00:37:15;96531.38;;;13.71;100.00
74346;BME280;62776;50.518;6.732;2023-05-07T00:40:03;96531.53;;;13.63;100.00
74346;BME280;62776;50.518;6.732;2023-05-07T00:42:54;96533.41;;;13.59;100.00
74346;BME280;62776;50.518;6.732;2023-05-07T00:45:43;96524.72;;;13.57;100.00
74346;BME280;62776;50.518;6.732;2023-05-07T00:48:30;96525.56;;;13.58;100.00
74346;BME280;62776;50.518;6.732;2023-05-07T00:51:18;96521.22;;;13.58;100.00
74346;BME280;62776;50.518;6.732;2023-05-07T00:54:05;96519.41;;;13.60;100.00
74346;BME280;62776;50.518;6.732;2023-05-07T00:56:52;96520.28;;;13.61;100.00
74346;BME280;62776;50.518;6.732;2023-05-07T00:59:38;96522.84;;;13.63;100.00
74346;BME280;62776;50.518;6.732;2023-05-07T01:02:26;96524.66;;;13.60;100.00
74346;BME280;62776;50.518;6.732;2023-05-07T01:05:15;96519.59;;;13.53;100.00
74346;BME280;62776;50.518;6.732;2023-05-07T01:08:11;96518.72;;;13.52;100.00
74346;BME280;62776;50.518;6.732;2023-05-07T01:11:00;96520.53;;;13.50;100.00
74346;BME280;62776;50.518;6.732;2023-05-07T01:13:53;96517.09;;;13.48;100.00
74346;BME280;62776;50.518;6.732;2023-05-07T01:16:45;96515.41;;;13.05;100.00
74346;BME280;62776;50.518;6.732;2023-05-07T01:19:33;96515.50;;;13.41;100.00
74346;BME280;62776;50.518;6.732;2023-05-07T01:22:48;96510.66;;;13.25;100.00
74346;BME280;62776;50.518;6.732;2023-05-07T01:25:35;96514.50;;;13.48;100.00
74346;BME280;62776;50.518;6.732;2023-05-07T01:28:22;96513.56;;;13.51;100.00
74346;BME280;62776;50.518;6.732;2023-05-07T01:31:08;96513.56;;;13.51;100.00
74346;BME280;62776;50.518;6.732;2023-05-07T01:33:57;96514.38;;;13.51;100.00
74346;BME280;62776;50.518;6.732;2023-05-07T01:36:55;96507.44;;;13.52;100.00
74346;BME280;62776;50.518;6.732;2023-05-07T01:39:45;96503.88;;;13.56;100.00
74346;BME280;62776;50.518;6.732;2023-05-07T01:42:32;96502.88;;;13.62;100.00
74346;BME280;62776;50.518;6.732;2023-05-07T01:45:18;96512.31;;;13.67;100.00
74346;BME280;62776;50.518;6.732;2023-05-07T01:48:04;96504.38;;;13.72;100.00
74346;BME280;62776;50.518;6.732;2023-05-07T01:50:51;96499.88;;;13.77;100.00
74346;BME280;62776;50.518;6.732;2023-05-07T01:53:39;96502.50;;;13.77;100.00
74346;BME280;62776;50.518;6.732;2023-05-07T01:56:26;96503.34;;;13.77;100.00
74346;BME280;62776;50.518;6.732;2023-05-07T01:59:12;96504.16;;;13.81;100.00
74346;BME280;62776;50.518;6.732;2023-05-07T02:01:59;96505.84;;;13.82;100.00
74346;BME280;62776;50.518;6.732;2023-05-07T02:04:46;96499.72;;;13.84;100.00
74346;BME280;62776;50.518;6.732;2023-05-07T02:07:32;96502.28;;;13.86;100.00
74346;BME280;62776;50.518;6.732;2023-05-07T02:10:19;96515.34;;;13.86;100.00
74346;BME280;62776;50.518;6.732;2023-05-07T02:13:07;96505.84;;;13.83;100.00
74346;BME280;62776;50.518;6.732;2023-05-07T02:15:53;96510.06;;;13.89;100.00
74346;BME280;62776;50.518;6.732;2023-05-07T02:18:40;96501.34;;;13.90;100.00
74346;BME280;62776;50.518;6.732;2023-05-07T02:21:27;96510.06;;;13.89;100.00
74346;BME280;62776;50.518;6.732;2023-05-07T02:24:13;96510.06;;;13.89;100.00
74346;BME280;62776;50.518;6.732;2023-05-07T02:27:00;96503.09;;;13.88;100.00
74346;BME280;62776;50.518;6.732;2023-05-07T02:29:47;96507.47;;;13.87;100.00
74346;BME280;62776;50.518;6.732;2023-05-07T02:32:36;96515.28;;;13.89;100.00
74346;BME280;62776;50.518;6.732;2023-05-07T02:35:25;96512.78;;;13.84;100.00
74346;BME280;62776;50.518;6.732;2023-05-07T02:38:12;96517.97;;;13.86;100.00
74346;BME280;62776;50.518;6.732;2023-05-07T02:41:00;96520.69;;;13.81;100.00
74346;BME280;62776;50.518;6.732;2023-05-07T02:43:52;96516.22;;;13.85;100.00
74346;BME280;62776;50.518;6.732;2023-05-07T02:46:39;96517.09;;;13.85;100.00
74346;BME280;62776;50.518;6.732;2023-05-07T02:49:27;96510.13;;;13.86;100.00
74346;BME280;62776;50.518;6.732;2023-05-07T02:52:16;96512.81;;;13.83;100.00
74346;BME280;62776;50.518;6.732;2023-05-07T02:55:02;96515.41;;;13.83;100.00
74346;BME280;62776;50.518;6.732;2023-05-07T02:57:49;96506.78;;;13.81;100.00
74346;BME280;62776;50.518;6.732;2023-05-07T03:00:36;96504.97;;;13.83;100.00
74346;BME280;62776;50.518;6.732;2023-05-07T03:03:23;96510.25;;;13.80;100.00
74346;BME280;62776;50.518;6.732;2023-05-07T03:06:10;96512.88;;;13.80;100.00
74346;BME280;62776;50.518;6.732;2023-05-07T03:08:56;96508.56;;;13.79;100.00
74346;BME280;62776;50.518;6.732;2023-05-07T03:11:42;96512.06;;;13.78;100.00
74346;BME280;62776;50.518;6.732;2023-05-07T03:14:31;96502.47;;;13.78;100.00
74346;BME280;62776;50.518;6.732;2023-05-07T03:17:17;96501.56;;;13.79;100.00
74346;BME280;62776;50.518;6.732;2023-05-07T03:20:04;96496.38;;;13.78;100.00
74346;BME280;62776;50.518;6.732;2023-05-07T03:22:51;96501.63;;;13.76;100.00
74346;BME280;62776;50.518;6.732;2023-05-07T03:25:45;96493.78;;;13.76;100.00
74346;BME280;62776;50.518;6.732;2023-05-07T03:28:31;96499.06;;;13.75;100.00
74346;BME280;62776;50.518;6.732;2023-05-07T03:31:17;96494.66;;;13.77;100.00
74346;BME280;62776;50.518;6.732;2023-05-07T03:34:05;96495.59;;;13.74;100.00
74346;BME280;62776;50.518;6.732;2023-05-07T03:36:51;96494.78;;;13.72;100.00
74346;BME280;62776;50.518;6.732;2023-05-07T03:39:38;96503.41;;;13.76;100.00
74346;BME280;62776;50.518;6.732;2023-05-07T03:42:24;96496.38;;;13.78;100.00
74346;BME280;62776;50.518;6.732;2023-05-07T03:45:18;96496.31;;;13.81;100.00
74346;BME280;62776;50.518;6.732;2023-05-07T03:48:10;96491.09;;;13.81;100.00
74346;BME280;62776;50.518;6.732;2023-05-07T03:51:00;96500.69;;;13.80;100.00
74346;BME280;62776;50.518;6.732;2023-05-07T03:53:47;96490.94;;;13.87;100.00
74346;BME280;62776;50.518;6.732;2023-05-07T03:56:34;96499.59;;;13.89;100.00
74346;BME280;62776;50.518;6.732;2023-05-07T03:59:20;96503.03;;;13.91;100.00
74346;BME280;62776;50.518;6.732;2023-05-07T04:02:08;96502.16;;;13.92;100.00
74346;BME280;62776;50.518;6.732;2023-05-07T04:04:55;96505.63;;;13.91;100.00
74346;BME280;62776;50.518;6.732;2023-05-07T04:07:41;96507.31;;;13.95;100.00
74346;BME280;62776;50.518;6.732;2023-05-07T04:10:31;96508.19;;;13.94;100.00
74346;BME280;62776;50.518;6.732;2023-05-07T04:13:23;96513.50;;;13.54;100.00
74346;BME280;62776;50.518;6.732;2023-05-07T04:16:09;96518.72;;;13.91;100.00
74346;BME280;62776;50.518;6.732;2023-05-07T04:18:56;96512.53;;;13.95;100.00
74346;BME280;62776;50.518;6.732;2023-05-07T04:21:42;96504.63;;;13.98;100.00
74346;BME280;62776;50.518;6.732;2023-05-07T04:24:32;96509.84;;;13.98;100.00
74346;BME280;62776;50.518;6.732;2023-05-07T04:27:22;96501.88;;;14.02;100.00
74346;BME280;62776;50.518;6.732;2023-05-07T04:30:08;96493.91;;;14.07;100.00
74346;BME280;62776;50.518;6.732;2023-05-07T04:32:55;96499.94;;;14.10;100.00
74346;BME280;62776;50.518;6.732;2023-05-07T04:35:43;96500.00;;;14.07;100.00
74346;BME280;62776;50.518;6.732;2023-05-07T04:38:31;96501.81;;;14.04;100.00
74346;BME280;62776;50.518;6.732;2023-05-07T04:41:17;96500.06;;;14.06;100.00
74346;BME280;62776;50.518;6.732;2023-05-07T04:44:04;96492.97;;;14.09;100.00
74346;BME280;62776;50.518;6.732;2023-05-07T04:46:51;96493.69;;;14.16;100.00
74346;BME280;62776;50.518;6.732;2023-05-07T04:49:39;96491.88;;;14.19;100.00
74346;BME280;62776;50.518;6.732;2023-05-07T04:52:27;96489.94;;;14.26;100.00
74346;BME280;62776;50.518;6.732;2023-05-07T04:55:19;96499.44;;;14.30;100.00
74346;BME280;62776;50.518;6.732;2023-05-07T04:58:07;96498.47;;;14.34;100.00
74346;BME280;62776;50.518;6.732;2023-05-07T05:00:54;96498.41;;;14.37;100.00
74346;BME280;62776;50.518;6.732;2023-05-07T05:03:42;96495.78;;;14.37;100.00
74346;BME280;62776;50.518;6.732;2023-05-07T05:06:30;96498.38;;;14.39;100.00
74346;BME280;62776;50.518;6.732;2023-05-07T05:09:17;96502.59;;;14.43;100.00
74346;BME280;62776;50.518;6.732;2023-05-07T05:12:10;96503.44;;;14.45;100.00
74346;BME280;62776;50.518;6.732;2023-05-07T05:14:56;96498.91;;;14.51;100.00
74346;BME280;62776;50.518;6.732;2023-05-07T05:17:43;96499.63;;;14.56;100.00
74346;BME280;62776;50.518;6.732;2023-05-07T05:20:29;96502.94;;;14.63;100.00
74346;BME280;62776;50.518;6.732;2023-05-07T05:23:23;96504.50;;;14.70;100.00
74346;BME280;62776;50.518;6.732;2023-05-07T05:26:10;96513.19;;;14.70;100.00
74346;BME280;62776;50.518;6.732;2023-05-07T05:29:02;96509.72;;;14.70;100.00
74346;BME280;62776;50.518;6.732;2023-05-07T05:31:49;96499.16;;;14.74;100.00
74346;BME280;62776;50.518;6.732;2023-05-07T05:34:41;96491.47;;;14.36;100.00
74346;BME280;62776;50.518;6.732;2023-05-07T05:37:33;96499.91;;;14.78;100.00
74346;BME280;62776;50.518;6.732;2023-05-07T05:40:20;96504.94;;;14.86;100.00
74346;BME280;62776;50.518;6.732;2023-05-07T05:43:09;96505.78;;;14.86;100.00
74346;BME280;62776;50.518;6.732;2023-05-07T05:45:56;96515.28;;;14.90;100.00
74346;BME280;62776;50.518;6.732;2023-05-07T05:48:44;96516.81;;;14.97;100.00
74346;BME280;62776;50.518;6.732;2023-05-07T05:51:31;96516.47;;;15.09;100.00
74346;BME280;62776;50.518;6.732;2023-05-07T05:54:18;96522.41;;;15.16;100.00
74346;BME280;62776;50.518;6.732;2023-05-07T05:57:10;96524.81;;;15.22;100.00
74346;BME280;62776;50.518;6.732;2023-05-07T05:59:56;96526.22;;;15.33;100.00
74346;BME280;62776;50.518;6.732;2023-05-07T06:02:43;96522.47;;;15.44;100.00
74346;BME280;62776;50.518;6.732;2023-05-07T06:05:29;96524.81;;;15.53;100.00
74346;BME280;62776;50.518;6.732;2023-05-07T06:08:17;96527.19;;;15.60;100.00
74346;BME280;62776;50.518;6.732;2023-05-07T06:11:04;96531.28;;;15.69;100.00
74346;BME280;62776;50.518;6.732;2023-05-07T06:13:57;96537.16;;;15.77;100.00
74346;BME280;62776;50.518;6.732;2023-05-07T06:16:44;96537.84;;;15.83;100.00
74346;BME280;62776;50.518;6.732;2023-05-07T06:19:36;96544.00;;;15.53;100.00
74346;BME280;62776;50.518;6.732;2023-05-07T06:22:31;96551.56;;;15.91;100.00
74346;BME280;62776;50.518;6.732;2023-05-07T06:25:18;96548.59;;;16.02;100.00
74346;BME280;62776;50.518;6.732;2023-05-07T06:28:05;96542.22;;;16.11;100.00
74346;BME280;62776;50.518;6.732;2023-05-07T06:30:51;96537.47;;;16.22;100.00
74346;BME280;62776;50.518;6.732;2023-05-07T06:33:39;96537.19;;;16.31;100.00
74346;BME280;62776;50.518;6.732;2023-05-07T06:36:34;96546.47;;;16.41;100.00
74346;BME280;62776;50.518;6.732;2023-05-07T06:39:21;96535.53;;;16.55;100.00
74346;BME280;62776;50.518;6.732;2023-05-07T06:42:08;96543.84;;;16.67;100.00
74346;BME280;62776;50.518;6.732;2023-05-07T06:44:54;96546.16;;;16.76;100.00
74346;BME280;62776;50.518;6.732;2023-05-07T06:47:41;96543.22;;;16.85;100.00
74346;BME280;62776;50.518;6.732;2023-05-07T06:50:29;96539.44;;;16.92;100.00
74346;BME280;62776;50.518;6.732;2023-05-07T06:53:15;96546.22;;;16.99;100.00
74346;BME280;62776;50.518;6.732;2023-05-07T06:56:02;96542.41;;;17.08;100.00
74346;BME280;62776;50.518;6.732;2023-05-07T06:58:48;96542.22;;;17.13;100.00
74346;BME280;62776;50.518;6.732;2023-05-07T07:01:37;96537.50;;;17.22;100.00
74346;BME280;62776;50.518;6.732;2023-05-07T07:04:24;96542.41;;;17.31;100.00
74346;BME280;62776;50.518;6.732;2023-05-07T07:07:11;96543.84;;;17.40;100.00
74346;BME280;62776;50.518;6.732;2023-05-07T07:09:57;96541.78;;;17.48;100.00
74346;BME280;62776;50.518;6.732;2023-05-07T07:12:47;96545.09;;;17.53;100.00
74346;BME280;62776;50.518;6.732;2023-05-07T07:15:33;96545.31;;;17.72;100.00
74346;BME280;62776;50.518;6.732;2023-05-07T07:18:27;96540.41;;;17.84;100.00
74346;BME280;62776;50.518;6.732;2023-05-07T07:21:16;96541.81;;;17.93;100.00
74346;BME280;62776;50.518;6.732;2023-05-07T07:24:03;96548.13;;;18.10;100.00
74346;BME280;62776;50.518;6.732;2023-05-07T07:26:50;96544.94;;;18.24;100.00
74346;BME280;62776;50.518;6.732;2023-05-07T07:29:38;96544.44;;;18.36;100.00
74346;BME280;62776;50.518;6.732;2023-05-07T07:32:24;96537.03;;;18.46;100.00
74346;BME280;62776;50.518;6.732;2023-05-07T07:35:12;96544.53;;;18.56;100.00
74346;BME280;62776;50.518;6.732;2023-05-07T07:38:01;96541.81;;;18.58;100.00
74346;BME280;62776;50.518;6.732;2023-05-07T07:40:48;96538.97;;;18.62;100.00
74346;BME280;62776;50.518;6.732;2023-05-07T07:43:35;96535.91;;;18.73;100.00
74346;BME280;62776;50.518;6.732;2023-05-07T07:46:22;96544.72;;;18.72;100.00
74346;BME280;62776;50.518;6.732;2023-05-07T07:49:10;96546.69;;;18.87;100.00
74346;BME280;62776;50.518;6.732;2023-05-07T07:51:57;96548.94;;;18.96;100.00
74346;BME280;62776;50.518;6.732;2023-05-07T07:54:45;96550.25;;;19.06;100.00
74346;BME280;62776;50.518;6.732;2023-05-07T07:57:32;96546.41;;;19.13;100.00
74346;BME280;62776;50.518;6.732;2023-05-07T08:00:19;96550.31;;;19.25;100.00
74346;BME280;62776;50.518;6.732;2023-05-07T08:03:08;96556.00;;;19.34;100.00
74346;BME280;62776;50.518;6.732;2023-05-07T08:05:55;96559.06;;;19.46;100.00
74346;BME280;62776;50.518;6.732;2023-05-07T08:08:47;96556.91;;;19.54;100.00
74346;BME280;62776;50.518;6.732;2023-05-07T08:11:35;96557.22;;;19.66;100.00
74346;BME280;62776;50.518;6.732;2023-05-07T08:14:22;96557.59;;;19.77;100.00
74346;BME280;62776;50.518;6.732;2023-05-07T08:17:09;96557.16;;;19.86;100.00
74346;BME280;62776;50.518;6.732;2023-05-07T08:19:56;96560.22;;;19.96;98.20
74346;BME280;62776;50.518;6.732;2023-05-07T08:22:48;96554.81;;;19.99;98.32
74346;BME280;62776;50.518;6.732;2023-05-07T08:25:41;96566.13;;;20.01;97.12
74346;BME280;62776;50.518;6.732;2023-05-07T08:28:34;96561.56;;;20.05;94.42
74346;BME280;62776;50.518;6.732;2023-05-07T08:31:22;96561.63;;;20.03;96.75
74346;BME280;62776;50.518;6.732;2023-05-07T08:34:08;96561.06;;;20.15;100.00
74346;BME280;62776;50.518;6.732;2023-05-07T08:36:56;96556.06;;;20.28;100.00
74346;BME280;62776;50.518;6.732;2023-05-07T08:39:43;96562.31;;;20.44;100.00
74346;BME280;62776;50.518;6.732;2023-05-07T08:42:31;96571.56;;;20.52;98.50
74346;BME280;62776;50.518;6.732;2023-05-07T08:45:22;96560.25;;;20.68;99.69
74346;BME280;62776;50.518;6.732;2023-05-07T08:48:15;96560.72;;;20.76;97.04
74346;BME280;62776;50.518;6.732;2023-05-07T08:51:12;96560.75;;;20.93;92.93
74346;BME280;62776;50.518;6.732;2023-05-07T08:53:58;96559.97;;;21.08;92.68
74346;BME280;62776;50.518;6.732;2023-05-07T08:56:47;96557.31;;;21.25;93.56
74346;BME280;62776;50.518;6.732;2023-05-07T08:59:34;96557.47;;;21.22;77.64
74346;BME280;62776;50.518;6.732;2023-05-07T09:02:20;96565.41;;;21.22;75.26
74346;BME280;62776;50.518;6.732;2023-05-07T09:05:08;96562.59;;;21.25;77.67
74346;BME280;62776;50.518;6.732;2023-05-07T09:07:54;96567.94;;;21.41;75.66
74346;BME280;62776;50.518;6.732;2023-05-07T09:10:41;96560.75;;;21.43;71.91
74346;BME280;62776;50.518;6.732;2023-05-07T09:13:33;96565.38;;;21.39;67.99
74346;BME280;62776;50.518;6.732;2023-05-07T09:16:21;96565.38;;;21.39;74.17
74346;BME280;62776;50.518;6.732;2023-05-07T09:19:08;96555.69;;;21.55;68.25
74346;BME280;62776;50.518;6.732;2023-05-07T09:22:02;96558.63;;;21.66;71.18
74346;BME280;62776;50.518;6.732;2023-05-07T09:24:51;96560.25;;;21.85;68.63
74346;BME280;62776;50.518;6.732;2023-05-07T09:27:38;96557.53;;;21.86;60.56
74346;BME280;62776;50.518;6.732;2023-05-07T09:30:33;96558.34;;;21.88;56.75
74346;BME280;62776;50.518;6.732;2023-05-07T09:33:20;96561.28;;;21.82;58.23
74346;BME280;62776;50.518;6.732;2023-05-07T09:36:08;96558.72;;;21.81;61.69
74346;BME280;62776;50.518;6.732;2023-05-07T09:39:00;96554.97;;;21.85;64.61
74346;BME280;62776;50.518;6.732;2023-05-07T09:41:52;96559.31;;;21.86;58.51
74346;BME280;62776;50.518;6.732;2023-05-07T09:44:42;96560.13;;;21.88;56.42
74346;BME280;62776;50.518;6.732;2023-05-07T09:47:32;96565.72;;;21.82;55.51
74346;BME280;62776;50.518;6.732;2023-05-07T09:50:32;96563.69;;;21.87;62.86
74346;BME280;62776;50.518;6.732;2023-05-07T09:53:21;96560.22;;;22.02;56.33
74346;BME280;62776;50.518;6.732;2023-05-07T09:56:09;96565.19;;;22.08;60.98
74346;BME280;62776;50.518;6.732;2023-05-07T09:58:57;96554.44;;;22.11;58.02
74346;BME280;62776;50.518;6.732;2023-05-07T10:01:46;96551.69;;;22.12;61.54
74346;BME280;62776;50.518;6.732;2023-05-07T10:04:43;96553.47;;;22.12;56.84
74346;BME280;62776;50.518;6.732;2023-05-07T10:07:30;96554.44;;;22.11;54.56
74346;BME280;62776;50.518;6.732;2023-05-07T10:10:19;96557.34;;;22.22;56.71
74346;BME280;62776;50.518;6.732;2023-05-07T10:13:06;96545.84;;;22.37;62.45
74346;BME280;62776;50.518;6.732;2023-05-07T10:15:56;96545.28;;;22.62;62.23
74346;BME280;62776;50.518;6.732;2023-05-07T10:18:44;96549.53;;;22.80;55.84
74346;BME280;62776;50.518;6.732;2023-05-07T10:21:36;96541.34;;;22.84;55.60
74346;BME280;62776;50.518;6.732;2023-05-07T10:24:29;96548.53;;;22.82;51.74
74346;BME280;62776;50.518;6.732;2023-05-07T10:27:18;96553.50;;;22.73;52.15
74346;BME280;62776;50.518;6.732;2023-05-07T10:33:34;96554.63;;;22.53;52.68
74346;BME280;62776;50.518;6.732;2023-05-07T10:36:22;96548.56;;;22.67;58.91
74346;BME280;62776;50.518;6.732;2023-05-07T10:39:12;96551.63;;;22.75;61.31
74346;BME280;62776;50.518;6.732;2023-05-07T10:42:14;96557.19;;;22.70;56.36
74346;BME280;62776;50.518;6.732;2023-05-07T10:45:16;96552.19;;;22.66;58.79
74346;BME280;62776;50.518;6.732;2023-05-07T10:48:08;96556.06;;;22.74;57.75
74346;BME280;62776;50.518;6.732;2023-05-07T10:51:18;96556.75;;;22.62;60.54
74346;BME280;62776;50.518;6.732;2023-05-07T10:54:20;96559.94;;;22.69;61.89
74346;BME280;62776;50.518;6.732;2023-05-07T11:03:27;96552.88;;;22.38;52.16
74346;BME280;62776;50.518;6.732;2023-05-07T11:06:15;96554.31;;;22.28;53.68
74346;BME280;62776;50.518;6.732;2023-05-07T11:09:04;96558.25;;;22.21;55.09
74346;BME280;62776;50.518;6.732;2023-05-07T11:11:51;96548.44;;;22.23;60.26
74346;BME280;62776;50.518;6.732;2023-05-07T11:14:44;96546.81;;;22.20;57.11
74346;BME280;62776;50.518;6.732;2023-05-07T11:17:34;96550.16;;;22.24;57.90
74346;BME280;62776;50.518;6.732;2023-05-07T11:20:43;96562.53;;;22.23;64.03
74346;BME280;62776;50.518;6.732;2023-05-07T11:26:24;96554.75;;;22.05;74.17
74346;BME280;62776;50.518;6.732;2023-05-07T11:29:22;96561.13;;;21.85;75.26
74346;BME280;62776;50.518;6.732;2023-05-07T11:32:08;96556.13;;;22.12;75.05
74346;BME280;62776;50.518;6.732;2023-05-07T11:34:57;96555.59;;;22.21;72.83
74346;BME280;62776;50.518;6.732;2023-05-07T11:37:46;96561.25;;;22.15;68.12
74346;BME280;62776;50.518;6.732;2023-05-07T11:40:33;96562.09;;;22.15;70.29
74346;BME280;62776;50.518;6.732;2023-05-07T11:43:20;96557.72;;;21.83;70.58
74346;BME280;62776;50.518;6.732;2023-05-07T11:46:14;96559.81;;;21.76;69.75
74346;BME280;62776;50.518;6.732;2023-05-07T11:49:01;96556.09;;;21.81;71.39
74346;BME280;62776;50.518;6.732;2023-05-07T11:51:48;96556.72;;;21.68;67.76
74346;BME280;62776;50.518;6.732;2023-05-07T11:54:37;96560.44;;;21.49;69.31
74346;BME280;62776;50.518;6.732;2023-05-07T11:57:25;96559.13;;;21.40;69.62
74346;BME280;62776;50.518;6.732;2023-05-07T12:00:18;96560.53;;;21.14;70.01
74346;BME280;62776;50.518;6.732;2023-05-07T12:03:05;96559.78;;;20.94;72.55
74346;BME280;62776;50.518;6.732;2023-05-07T12:05:53;96557.00;;;20.97;72.65
74346;BME280;62776;50.518;6.732;2023-05-07T12:08:42;96558.88;;;20.95;76.63
74346;BME280;62776;50.518;6.732;2023-05-07T12:11:29;96565.53;;;21.02;73.79
74346;BME280;62776;50.518;6.732;2023-05-07T12:14:26;96568.13;;;21.03;74.41
74346;BME280;62776;50.518;6.732;2023-05-07T12:17:14;96567.66;;;20.95;73.36
74346;BME280;62776;50.518;6.732;2023-05-07T12:20:03;96569.59;;;20.92;71.44
74346;BME280;62776;50.518;6.732;2023-05-07T12:22:52;96571.31;;;20.93;72.32
74346;BME280;62776;50.518;6.732;2023-05-07T12:25:39;96569.19;;;20.82;69.93
74346;BME280;62776;50.518;6.732;2023-05-07T12:28:29;96569.72;;;20.72;70.59
74346;BME280;62776;50.518;6.732;2023-05-07T12:31:16;96565.41;;;20.71;71.54
74346;BME280;62776;50.518;6.732;2023-05-07T12:34:05;96576.47;;;20.43;70.87
74346;BME280;62776;50.518;6.732;2023-05-07T12:36:51;96576.19;;;20.30;72.28
74346;BME280;62776;50.518;6.732;2023-05-07T12:39:37;96583.09;;;20.14;73.69
74346;BME280;62776;50.518;6.732;2023-05-07T12:42:24;96582.34;;;19.93;72.34
74346;BME280;62776;50.518;6.732;2023-05-07T12:45:19;96587.75;;;19.72;74.27
74346;BME280;62776;50.518;6.732;2023-05-07T12:48:06;96583.59;;;19.66;75.13
74346;BME280;62776;50.518;6.732;2023-05-07T12:50:55;96589.16;;;19.60;78.93
74346;BME280;62776;50.518;6.732;2023-05-07T12:53:43;96598.41;;;19.50;83.52
74346;BME280;62776;50.518;6.732;2023-05-07T12:56:37;96607.38;;;19.46;87.34
74346;BME280;62776;50.518;6.732;2023-05-07T12:59:38;96615.63;;;19.38;89.12
74346;BME280;62776;50.518;6.732;2023-05-07T13:02:33;96608.16;;;19.28;96.85
74346;BME280;62776;50.518;6.732;2023-05-07T13:05:20;96615.94;;;19.31;99.97
74346;BME280;62776;50.518;6.732;2023-05-07T13:08:08;96616.38;;;19.20;100.00
74346;BME280;62776;50.518;6.732;2023-05-07T13:11:02;96615.28;;;19.06;100.00
74346;BME280;62776;50.518;6.732;2023-05-07T13:13:56;96617.25;;;19.01;100.00
74346;BME280;62776;50.518;6.732;2023-05-07T13:16:42;96618.09;;;19.01;100.00
74346;BME280;62776;50.518;6.732;2023-05-07T13:19:34;96619.53;;;18.88;100.00
74346;BME280;62776;50.518;6.732;2023-05-07T13:22:21;96620.84;;;18.78;100.00
74346;BME280;62776;50.518;6.732;2023-05-07T13:25:08;96623.72;;;18.72;100.00
74346;BME280;62776;50.518;6.732;2023-05-07T13:27:55;96623.91;;;18.67;100.00
74346;BME280;62776;50.518;6.732;2023-05-07T13:30:44;96623.22;;;18.62;100.00
74346;BME280;62776;50.518;6.732;2023-05-07T13:33:32;96612.09;;;18.56;100.00
74346;BME280;62776;50.518;6.732;2023-05-07T13:36:20;96618.75;;;18.43;100.00
74346;BME280;62776;50.518;6.732;2023-05-07T13:39:06;96618.44;;;18.28;100.00
74346;BME280;62776;50.518;6.732;2023-05-07T13:41:59;96621.72;;;18.12;100.00
74346;BME280;62776;50.518;6.732;2023-05-07T13:44:45;96612.19;;;18.09;100.00
74346;BME280;62776;50.518;6.732;2023-05-07T13:47:32;96616.34;;;18.15;100.00
74346;BME280;62776;50.518;6.732;2023-05-07T13:50:20;96611.69;;;18.21;100.00
74346;BME280;62776;50.518;6.732;2023-05-07T13:53:08;96620.13;;;18.29;100.00
74346;BME280;62776;50.518;6.732;2023-05-07T13:55:54;96610.88;;;18.43;100.00
74346;BME280;62776;50.518;6.732;2023-05-07T13:58:41;96605.06;;;18.56;100.00
74346;BME280;62776;50.518;6.732;2023-05-07T14:01:27;96609.69;;;18.71;100.00
74346;BME280;62776;50.518;6.732;2023-05-07T14:04:27;96605.44;;;18.89;100.00
74346;BME280;62776;50.518;6.732;2023-05-07T14:07:15;96601.25;;;19.05;100.00
74346;BME280;62776;50.518;6.732;2023-05-07T14:10:14;96599.91;;;19.35;100.00
74346;BME280;62776;50.518;6.732;2023-05-07T14:13:00;96596.28;;;19.58;100.00
74346;BME280;62776;50.518;6.732;2023-05-07T14:15:47;96600.56;;;19.79;100.00
74346;BME280;62776;50.518;6.732;2023-05-07T14:18:40;96611.72;;;19.86;100.00
74346;BME280;62776;50.518;6.732;2023-05-07T14:21:26;96613.28;;;19.90;100.00
74346;BME280;62776;50.518;6.732;2023-05-07T14:24:18;96614.94;;;19.54;100.00
74346;BME280;62776;50.518;6.732;2023-05-07T14:27:12;96622.94;;;19.71;100.00
74346;BME280;62776;50.518;6.732;2023-05-07T14:29:59;96625.94;;;19.63;100.00
74346;BME280;62776;50.518;6.732;2023-05-07T14:32:45;96632.84;;;19.66;100.00
74346;BME280;62776;50.518;6.732;2023-05-07T14:35:30;96639.59;;;19.53;100.00
74346;BME280;62776;50.518;6.732;2023-05-07T14:38:17;96646.31;;;19.19;100.00
74346;BME280;62776;50.518;6.732;2023-05-07T14:41:04;96648.06;;;18.99;100.00
74346;BME280;62776;50.518;6.732;2023-05-07T14:43:52;96649.41;;;18.87;100.00
74346;BME280;62776;50.518;6.732;2023-05-07T14:46:38;96648.44;;;18.90;100.00
74346;BME280;62776;50.518;6.732;2023-05-07T14:49:31;96655.06;;;18.78;100.00
74346;BME280;62776;50.518;6.732;2023-05-07T14:52:17;96646.91;;;18.62;100.00
74346;BME280;62776;50.518;6.732;2023-05-07T14:55:05;96648.50;;;18.45;100.00
74346;BME280;62776;50.518;6.732;2023-05-07T14:57:51;96658.47;;;18.37;100.00